Austin Reinauer — WCX8055 — position and weather

sailwx.info

Track history (hours):
 
Tides and Currents Weather Stations Pressure Air Temp Water Temp Dewpoint Dewpoint Depression Visibility Wind Speed Wind Dir Waves Ship Positions

Austin Reinauer

Owner: REINAUER TRANSPORTATION CO, LP, STATEN ISLAND, NY. More information available from US FCC via Universal Licensing System and Coast Guard Vessel Documentation Center.

Last reported at 2014-Dec-20 00:33 UTC. Time now 2014-Dec-20 00:48 UTC.
Position N 40°19' W 073°36'.

Length 33 m; draft 6.7 m.

Type: Ship (hazmat cat B). MMSI: 366739920.

Date/timePositionNaut miles runAvg speedWind from/ knotsBaromVisibWave heightAir tempDewpointWater temp
2014-Dec-20 00:33N 40°19' W 073°36'1010.0
2014-Dec-19 23:33N 40°27' W 073°29'9 8.8
2014-Dec-19 22:33N 40°32' W 073°20'14 9.7
2014-Dec-19 21:08N 40°37' W 073°03'6 9.8
2014-Dec-19 20:33N 40°39' W 072°56'10 9.9
2014-Dec-19 19:33N 40°43' W 072°44'10 9.8
2014-Dec-19 18:33N 40°46' W 072°32'10 9.9
2014-Dec-19 17:33N 40°50' W 072°20'10 9.9
2014-Dec-19 16:33N 40°54' W 072°08'10 9.9
2014-Dec-19 15:33N 40°58' W 071°56'10 9.5
2014-Dec-19 14:33N 41°03' W 071°44'9 8.7
2014-Dec-19 13:33N 41°06' W 071°34'9 8.8
2014-Dec-19 12:33N 41°11' W 071°24'9 9.1
2014-Dec-19 11:33N 41°17' W 071°15'9 8.6
2014-Dec-19 10:31N 41°23' W 071°06'61 1.4
2014-Dec-17 14:14N 42°23' W 070°51'56 7.2
2014-Dec-17 06:33N 41°27' W 070°59'9 9.3
2014-Dec-17 05:33N 41°23' W 071°10'9 9.2
2014-Dec-17 04:33N 41°25' W 071°22'9 9.1
2014-Dec-17 03:33N 41°34' W 071°19'9 9.0
2014-Dec-17 02:34N 41°43' W 071°20'5 0.6
2014-Dec-16 17:20N 41°48' W 071°23'0 0.0
2014-Dec-16 16:26N 41°48' W 071°23'0 0.2
2014-Dec-16 15:32N 41°48' W 071°23'1 0.9
2014-Dec-16 14:28N 41°47' W 071°22'0 0.0
2014-Dec-16 13:28N 41°47' W 071°22'0 0.0
2014-Dec-16 12:34N 41°47' W 071°22'0 0.0
2014-Dec-16 11:33N 41°47' W 071°22'0 0.0
2014-Dec-16 10:33N 41°47' W 071°22'0 0.0
2014-Dec-16 09:33N 41°47' W 071°22'0 0.0
2014-Dec-16 08:33N 41°47' W 071°22'0 0.0
2014-Dec-16 07:33N 41°47' W 071°22'0 0.0
2014-Dec-16 06:33N 41°47' W 071°22'0 0.0
2014-Dec-16 05:33N 41°47' W 071°22'0 0.0
2014-Dec-16 04:21N 41°47' W 071°22'1 0.5
2014-Dec-16 02:33N 41°46' W 071°23'6 5.3
2014-Dec-16 01:31N 41°41' W 071°19'5 5.0
2014-Dec-16 00:30N 41°36' W 071°18'7 7.3
2014-Dec-15 23:33N 41°30' W 071°21'8 8.3
2014-Dec-15 22:34N 41°22' W 071°26'7 7.2
2014-Dec-15 21:33N 41°18' W 071°33'8 8.3
2014-Dec-15 20:34N 41°17' W 071°44'8 8.1
2014-Dec-15 19:33N 41°15' W 071°55'8 8.1
2014-Dec-15 18:33N 41°14' W 072°05'8 8.3
2014-Dec-15 17:33N 41°12' W 072°16'9 9.0
2014-Dec-15 16:34N 41°09' W 072°27'9 9.2
2014-Dec-15 15:34N 41°07' W 072°39'10 9.4
2014-Dec-15 14:32N 41°04' W 072°52'10 9.3
2014-Dec-15 13:29N 41°02' W 073°04'13 9.3
2014-Dec-15 12:08N 41°01' W 073°21'6 8.8
2014-Dec-15 11:26N 40°59' W 073°28'16 8.4
2014-Dec-15 09:32N 40°50' W 073°46'7 7.1
2014-Dec-15 08:33N 40°47' W 073°55'7 7.1
2014-Dec-15 07:34N 40°42' W 074°00'4 3.9
2014-Dec-15 06:33N 40°39' W 074°03'2 2.3
2014-Dec-15 05:33N 40°39' W 074°06'5 5.1
2014-Dec-15 04:33N 40°37' W 074°12'1 1.2
2014-Dec-15 03:25N 40°35' W 074°13'0 0.0
2014-Dec-14 23:07N 40°35' W 074°13'0 0.0
2014-Dec-14 14:19N 40°35' W 074°13'0 0.0
2014-Dec-14 12:31N 40°35' W 074°13'0 0.0
2014-Dec-14 11:22N 40°35' W 074°13'0 0.0
2014-Dec-14 05:07N 40°35' W 074°13'0 0.0
2014-Dec-14 02:04N 40°35' W 074°13'0 0.1
2014-Dec-13 21:13N 40°35' W 074°13'3 1.3
2014-Dec-13 19:10N 40°33' W 074°15'2 2.4
2014-Dec-13 18:29N 40°31' W 074°15'5 3.4
2014-Dec-13 17:03N 40°36' W 074°12'2 4.1
2014-Dec-13 16:31N 40°38' W 074°12'5 1.4
2014-Dec-13 13:07N 40°42' W 074°08'0 0.0
2014-Dec-13 12:28N 40°42' W 074°08'0 0.0
2014-Dec-13 11:31N 40°42' W 074°08'0 0.0
2014-Dec-13 10:25N 40°42' W 074°08'0 0.0
2014-Dec-13 09:10N 40°42' W 074°08'0 0.0
2014-Dec-13 08:34N 40°42' W 074°08'0 0.0
2014-Dec-13 07:27N 40°42' W 074°08'0 0.0
2014-Dec-13 06:12N 40°42' W 074°08'0 0.0
2014-Dec-13 05:15N 40°42' W 074°08'0 0.0
2014-Dec-13 04:33N 40°42' W 074°08'0 0.0
2014-Dec-13 03:03N 40°42' W 074°08'0 0.0
2014-Dec-13 02:27N 40°42' W 074°08'0 0.0
2014-Dec-13 01:33N 40°42' W 074°08'0 0.0
2014-Dec-13 00:12N 40°42' W 074°08'3 4.7
2014-Dec-12 23:33N 40°39' W 074°09'1 1.4
2014-Dec-12 22:31N 40°39' W 074°07'0 0.3
2014-Dec-12 21:33N 40°39' W 074°07'0 0.0
2014-Dec-12 20:33N 40°39' W 074°07'0 0.0
2014-Dec-12 19:30N 40°39' W 074°07'2 1.7
2014-Dec-12 18:33N 40°39' W 074°05'2 2.2
2014-Dec-12 17:29N 40°40' W 074°02'0 0.0
2014-Dec-12 16:32N 40°40' W 074°02'0 0.0
2014-Dec-12 15:32N 40°40' W 074°02'0 0.1
2014-Dec-12 14:32N 40°40' W 074°02'3 3.4
2014-Dec-12 13:33N 40°39' W 074°06'2 1.5
2014-Dec-12 12:31N 40°38' W 074°08'1 0.7
2014-Dec-12 11:32N 40°39' W 074°07'3 2.7
2014-Dec-12 10:33N 40°39' W 074°04'0 0.4
2014-Dec-12 09:33N 40°39' W 074°03'0 0.0
2014-Dec-12 08:33N 40°39' W 074°03'0 0.0
2014-Dec-12 07:33N 40°39' W 074°03'0 0.2
2014-Dec-12 06:33N 40°39' W 074°03'0 0.1
2014-Dec-12 05:33N 40°39' W 074°03'0 0.0
2014-Dec-12 04:33N 40°39' W 074°03'0 0.0
2014-Dec-12 03:33N 40°39' W 074°03'0 0.2
2014-Dec-12 02:33N 40°39' W 074°03'0 0.1
2014-Dec-12 01:33N 40°39' W 074°03'0 0.1
2014-Dec-12 00:33N 40°39' W 074°03'0 0.0
2014-Dec-11 23:30N 40°39' W 074°03'0 0.0
2014-Dec-11 22:33N 40°39' W 074°03'0 0.0
2014-Dec-11 21:30N 40°39' W 074°03'0 0.0
2014-Dec-11 20:33N 40°39' W 074°03'0 0.0
2014-Dec-11 19:33N 40°39' W 074°03'0 0.0
2014-Dec-11 18:31N 40°39' W 074°03'5 5.6
2014-Dec-11 17:34N 40°34' W 074°02'11 7.2
2014-Dec-11 16:04N 40°24' W 073°54'6 8.8
2014-Dec-11 15:22N 40°18' W 073°55'18 8.3
2014-Dec-11 13:11N 40°00' W 073°58'5 8.1
2014-Dec-11 12:33N 39°55' W 073°58'9 8.5
2014-Dec-11 11:33N 39°47' W 073°58'8 8.2
2014-Dec-11 10:33N 39°39' W 074°02'  
Track history (hours):
 
Tides and Currents Weather Stations Pressure Air Temp Water Temp Dewpoint Dewpoint Depression Visibility Wind Speed Wind Dir Waves Ship Positions

Austin Reinauer

Owner: REINAUER TRANSPORTATION CO, LP, STATEN ISLAND, NY. More information available from US FCC via Universal Licensing System and Coast Guard Vessel Documentation Center.

Last reported at 2014-Dec-20 00:33 UTC. Time now 2014-Dec-20 00:48 UTC.
Position N 40°19' W 073°36'.

Length 33 m; draft 6.7 m.

Type: Ship (hazmat cat B). MMSI: 366739920.

Date/timePositionNaut miles runAvg speedWind from/ knotsBaromVisibWave heightAir tempDewpointWater temp
2014-Dec-20 00:33N 40°19' W 073°36'1010.0
2014-Dec-19 23:33N 40°27' W 073°29'9 8.8
2014-Dec-19 22:33N 40°32' W 073°20'14 9.7
2014-Dec-19 21:08N 40°37' W 073°03'6 9.8
2014-Dec-19 20:33N 40°39' W 072°56'10 9.9
2014-Dec-19 19:33N 40°43' W 072°44'10 9.8
2014-Dec-19 18:33N 40°46' W 072°32'10 9.9
2014-Dec-19 17:33N 40°50' W 072°20'10 9.9
2014-Dec-19 16:33N 40°54' W 072°08'10 9.9
2014-Dec-19 15:33N 40°58' W 071°56'10 9.5
2014-Dec-19 14:33N 41°03' W 071°44'9 8.7
2014-Dec-19 13:33N 41°06' W 071°34'9 8.8
2014-Dec-19 12:33N 41°11' W 071°24'9 9.1
2014-Dec-19 11:33N 41°17' W 071°15'9 8.6
2014-Dec-19 10:31N 41°23' W 071°06'61 1.4
2014-Dec-17 14:14N 42°23' W 070°51'56 7.2
2014-Dec-17 06:33N 41°27' W 070°59'9 9.3
2014-Dec-17 05:33N 41°23' W 071°10'9 9.2
2014-Dec-17 04:33N 41°25' W 071°22'9 9.1
2014-Dec-17 03:33N 41°34' W 071°19'9 9.0
2014-Dec-17 02:34N 41°43' W 071°20'5 0.6
2014-Dec-16 17:20N 41°48' W 071°23'0 0.0
2014-Dec-16 16:26N 41°48' W 071°23'0 0.2
2014-Dec-16 15:32N 41°48' W 071°23'1 0.9
2014-Dec-16 14:28N 41°47' W 071°22'0 0.0
2014-Dec-16 13:28N 41°47' W 071°22'0 0.0
2014-Dec-16 12:34N 41°47' W 071°22'0 0.0
2014-Dec-16 11:33N 41°47' W 071°22'0 0.0
2014-Dec-16 10:33N 41°47' W 071°22'0 0.0
2014-Dec-16 09:33N 41°47' W 071°22'0 0.0
2014-Dec-16 08:33N 41°47' W 071°22'0 0.0
2014-Dec-16 07:33N 41°47' W 071°22'0 0.0
2014-Dec-16 06:33N 41°47' W 071°22'0 0.0
2014-Dec-16 05:33N 41°47' W 071°22'0 0.0
2014-Dec-16 04:21N 41°47' W 071°22'1 0.5
2014-Dec-16 02:33N 41°46' W 071°23'6 5.3
2014-Dec-16 01:31N 41°41' W 071°19'5 5.0
2014-Dec-16 00:30N 41°36' W 071°18'7 7.3
2014-Dec-15 23:33N 41°30' W 071°21'8 8.3
2014-Dec-15 22:34N 41°22' W 071°26'7 7.2
2014-Dec-15 21:33N 41°18' W 071°33'8 8.3
2014-Dec-15 20:34N 41°17' W 071°44'8 8.1
2014-Dec-15 19:33N 41°15' W 071°55'8 8.1
2014-Dec-15 18:33N 41°14' W 072°05'8 8.3
2014-Dec-15 17:33N 41°12' W 072°16'9 9.0
2014-Dec-15 16:34N 41°09' W 072°27'9 9.2
2014-Dec-15 15:34N 41°07' W 072°39'10 9.4
2014-Dec-15 14:32N 41°04' W 072°52'10 9.3
2014-Dec-15 13:29N 41°02' W 073°04'13 9.3
2014-Dec-15 12:08N 41°01' W 073°21'6 8.8
2014-Dec-15 11:26N 40°59' W 073°28'16 8.4
2014-Dec-15 09:32N 40°50' W 073°46'7 7.1
2014-Dec-15 08:33N 40°47' W 073°55'7 7.1
2014-Dec-15 07:34N 40°42' W 074°00'4 3.9
2014-Dec-15 06:33N 40°39' W 074°03'2 2.3
2014-Dec-15 05:33N 40°39' W 074°06'5 5.1
2014-Dec-15 04:33N 40°37' W 074°12'1 1.2
2014-Dec-15 03:25N 40°35' W 074°13'0 0.0
2014-Dec-14 23:07N 40°35' W 074°13'0 0.0
2014-Dec-14 14:19N 40°35' W 074°13'0 0.0
2014-Dec-14 12:31N 40°35' W 074°13'0 0.0
2014-Dec-14 11:22N 40°35' W 074°13'0 0.0
2014-Dec-14 05:07N 40°35' W 074°13'0 0.0
2014-Dec-14 02:04N 40°35' W 074°13'0 0.1
2014-Dec-13 21:13N 40°35' W 074°13'3 1.3
2014-Dec-13 19:10N 40°33' W 074°15'2 2.4
2014-Dec-13 18:29N 40°31' W 074°15'5 3.4
2014-Dec-13 17:03N 40°36' W 074°12'2 4.1
2014-Dec-13 16:31N 40°38' W 074°12'5 1.4
2014-Dec-13 13:07N 40°42' W 074°08'0 0.0
2014-Dec-13 12:28N 40°42' W 074°08'0 0.0
2014-Dec-13 11:31N 40°42' W 074°08'0 0.0
2014-Dec-13 10:25N 40°42' W 074°08'0 0.0
2014-Dec-13 09:10N 40°42' W 074°08'0 0.0
2014-Dec-13 08:34N 40°42' W 074°08'0 0.0
2014-Dec-13 07:27N 40°42' W 074°08'0 0.0
2014-Dec-13 06:12N 40°42' W 074°08'0 0.0
2014-Dec-13 05:15N 40°42' W 074°08'0 0.0
2014-Dec-13 04:33N 40°42' W 074°08'0 0.0
2014-Dec-13 03:03N 40°42' W 074°08'0 0.0
2014-Dec-13 02:27N 40°42' W 074°08'0 0.0
2014-Dec-13 01:33N 40°42' W 074°08'0 0.0
2014-Dec-13 00:12N 40°42' W 074°08'3 4.7
2014-Dec-12 23:33N 40°39' W 074°09'1 1.4
2014-Dec-12 22:31N 40°39' W 074°07'0 0.3
2014-Dec-12 21:33N 40°39' W 074°07'0 0.0
2014-Dec-12 20:33N 40°39' W 074°07'0 0.0
2014-Dec-12 19:30N 40°39' W 074°07'2 1.7
2014-Dec-12 18:33N 40°39' W 074°05'2 2.2
2014-Dec-12 17:29N 40°40' W 074°02'0 0.0
2014-Dec-12 16:32N 40°40' W 074°02'0 0.0
2014-Dec-12 15:32N 40°40' W 074°02'0 0.1
2014-Dec-12 14:32N 40°40' W 074°02'3 3.4
2014-Dec-12 13:33N 40°39' W 074°06'2 1.5
2014-Dec-12 12:31N 40°38' W 074°08'1 0.7
2014-Dec-12 11:32N 40°39' W 074°07'3 2.7
2014-Dec-12 10:33N 40°39' W 074°04'0 0.4
2014-Dec-12 09:33N 40°39' W 074°03'0 0.0
2014-Dec-12 08:33N 40°39' W 074°03'0 0.0
2014-Dec-12 07:33N 40°39' W 074°03'0 0.2
2014-Dec-12 06:33N 40°39' W 074°03'0 0.1
2014-Dec-12 05:33N 40°39' W 074°03'0 0.0
2014-Dec-12 04:33N 40°39' W 074°03'0 0.0
2014-Dec-12 03:33N 40°39' W 074°03'0 0.2
2014-Dec-12 02:33N 40°39' W 074°03'0 0.1
2014-Dec-12 01:33N 40°39' W 074°03'0 0.1
2014-Dec-12 00:33N 40°39' W 074°03'0 0.0
2014-Dec-11 23:30N 40°39' W 074°03'0 0.0
2014-Dec-11 22:33N 40°39' W 074°03'0 0.0
2014-Dec-11 21:30N 40°39' W 074°03'0 0.0
2014-Dec-11 20:33N 40°39' W 074°03'0 0.0
2014-Dec-11 19:33N 40°39' W 074°03'0 0.0
2014-Dec-11 18:31N 40°39' W 074°03'5 5.6
2014-Dec-11 17:34N 40°34' W 074°02'11 7.2
2014-Dec-11 16:04N 40°24' W 073°54'6 8.8
2014-Dec-11 15:22N 40°18' W 073°55'18 8.3
2014-Dec-11 13:11N 40°00' W 073°58'5 8.1
2014-Dec-11 12:33N 39°55' W 073°58'9 8.5
2014-Dec-11 11:33N 39°47' W 073°58'8 8.2
2014-Dec-11 10:33N 39°39' W 074°02'  

Dump ship's entire track history